createdAt,value
2022-12-05T00:00:23.462Z,994.02
2022-12-05T00:01:23.415Z,993.96
2022-12-05T00:02:23.619Z,993.99
2022-12-05T00:03:23.405Z,994.03
2022-12-05T00:04:23.537Z,993.93
2022-12-05T00:05:23.400Z,993.97
2022-12-05T00:06:23.389Z,993.89
2022-12-05T00:07:23.387Z,993.95
2022-12-05T00:08:23.394Z,993.90
2022-12-05T00:09:23.369Z,993.86
2022-12-05T00:10:23.382Z,993.83
2022-12-05T00:11:23.388Z,993.87
2022-12-05T00:12:23.365Z,993.86
2022-12-05T00:13:23.366Z,993.87
2022-12-05T00:14:23.339Z,993.86
2022-12-05T00:15:23.323Z,993.88
2022-12-05T00:16:23.587Z,993.85
2022-12-05T00:17:23.354Z,993.92
2022-12-05T00:18:23.344Z,993.87
2022-12-05T00:19:23.309Z,993.88
2022-12-05T00:20:23.300Z,993.87
2022-12-05T00:21:23.283Z,993.80
2022-12-05T00:22:23.321Z,993.84
2022-12-05T00:23:23.270Z,993.81
2022-12-05T00:24:23.311Z,993.85
2022-12-05T00:25:23.279Z,993.83
2022-12-05T00:26:23.270Z,993.79
2022-12-05T00:27:23.288Z,993.89
2022-12-05T00:28:23.258Z,993.80
2022-12-05T00:29:23.237Z,993.88
2022-12-05T00:30:23.303Z,993.87
2022-12-05T00:31:23.299Z,993.88
2022-12-05T00:32:23.721Z,993.90
2022-12-05T00:33:23.226Z,993.89
2022-12-05T00:34:23.211Z,993.97
2022-12-05T00:35:23.210Z,993.93
2022-12-05T00:36:23.196Z,993.90
2022-12-05T00:37:23.191Z,993.88
2022-12-05T00:38:23.200Z,993.90
2022-12-05T00:39:23.181Z,993.87
2022-12-05T00:40:23.184Z,993.99
2022-12-05T00:41:23.175Z,994.01
2022-12-05T00:42:23.185Z,993.94
2022-12-05T00:43:23.156Z,993.99
2022-12-05T00:44:23.161Z,993.91
2022-12-05T00:45:23.361Z,993.97
2022-12-05T00:46:23.235Z,993.88
2022-12-05T00:47:23.180Z,993.94
2022-12-05T00:48:23.150Z,993.98
2022-12-05T00:49:23.108Z,994.00
2022-12-05T00:50:23.126Z,993.96
2022-12-05T00:51:23.120Z,993.99
2022-12-05T00:52:23.168Z,993.98
2022-12-05T00:53:23.099Z,993.99
2022-12-05T00:54:23.110Z,993.97
2022-12-05T00:55:23.078Z,994.05
2022-12-05T00:56:23.121Z,994.01
2022-12-05T00:57:23.071Z,993.93
2022-12-05T00:58:23.068Z,994.01
2022-12-05T00:59:23.039Z,993.98
2022-12-05T01:00:23.057Z,993.90
2022-12-05T01:01:23.111Z,993.96
2022-12-05T01:02:23.049Z,993.97
2022-12-05T01:03:23.116Z,993.93
2022-12-05T01:04:23.062Z,993.94
2022-12-05T01:05:23.016Z,993.92
2022-12-05T01:06:23.003Z,993.95
2022-12-05T01:07:23.024Z,994.01
2022-12-05T01:08:23.001Z,993.99
2022-12-05T01:09:23.013Z,993.99
2022-12-05T01:10:22.992Z,993.94
2022-12-05T01:11:22.959Z,994.02
2022-12-05T01:12:22.978Z,994.00
2022-12-05T01:13:22.963Z,994.05
2022-12-05T01:14:22.952Z,994.06
2022-12-05T01:15:22.955Z,994.00
2022-12-05T01:16:22.955Z,993.92
2022-12-05T01:17:22.935Z,993.99
2022-12-05T01:18:22.969Z,994.04
2022-12-05T01:19:22.924Z,994.01
2022-12-05T01:20:22.952Z,994.04
2022-12-05T01:21:22.928Z,994.02
2022-12-05T01:22:22.900Z,993.95
2022-12-05T01:23:22.912Z,994.01
2022-12-05T01:24:22.891Z,993.97
2022-12-05T01:25:22.879Z,994.01
2022-12-05T01:26:22.885Z,994.03
2022-12-05T01:27:22.867Z,994.04
2022-12-05T01:28:22.926Z,994.02
2022-12-05T01:29:22.873Z,994.04
2022-12-05T01:30:22.860Z,994.02
2022-12-05T01:31:22.926Z,993.94
2022-12-05T01:32:22.921Z,994.05
2022-12-05T01:33:22.829Z,994.05
2022-12-05T01:34:22.827Z,993.97
2022-12-05T01:35:22.822Z,994.04
2022-12-05T01:36:22.831Z,994.00
2022-12-05T01:37:22.830Z,993.98
2022-12-05T01:38:22.790Z,994.09
2022-12-05T01:39:22.809Z,994.05
2022-12-05T01:40:22.802Z,994.12
2022-12-05T01:41:22.789Z,994.12
2022-12-05T01:42:26.138Z,993.98
2022-12-05T01:43:22.765Z,994.07
2022-12-05T01:44:22.759Z,994.07
2022-12-05T01:45:22.768Z,994.07
2022-12-05T01:46:22.807Z,994.10
2022-12-05T01:47:22.756Z,994.04
2022-12-05T01:48:22.831Z,994.03
2022-12-05T01:49:22.744Z,994.02
2022-12-05T01:50:22.712Z,994.08
2022-12-05T01:51:22.731Z,994.02
2022-12-05T01:52:22.766Z,994.07
2022-12-05T01:53:22.709Z,994.01
2022-12-05T01:54:22.703Z,994.05
2022-12-05T01:55:22.690Z,994.01
2022-12-05T01:56:22.677Z,994.00
2022-12-05T01:57:22.705Z,994.12
2022-12-05T01:58:22.658Z,994.01
2022-12-05T01:59:22.677Z,994.03
2022-12-05T02:00:22.661Z,994.04
2022-12-05T02:01:22.721Z,994.02
2022-12-05T02:02:22.737Z,993.99
2022-12-05T02:03:22.652Z,994.00
2022-12-05T02:04:22.626Z,994.05
2022-12-05T02:05:22.637Z,994.07
2022-12-05T02:06:22.629Z,993.98
2022-12-05T02:07:22.615Z,994.00
2022-12-05T02:08:22.767Z,994.01
2022-12-05T02:09:22.611Z,994.02
2022-12-05T02:10:22.590Z,994.03
2022-12-05T02:11:22.718Z,994.08
2022-12-05T02:12:22.589Z,994.12
2022-12-05T02:13:22.573Z,994.09
2022-12-05T02:14:22.579Z,994.13
2022-12-05T02:15:22.564Z,994.11
2022-12-05T02:16:22.614Z,994.09
2022-12-05T02:17:22.562Z,994.08
2022-12-05T02:18:22.535Z,994.14
2022-12-05T02:19:22.571Z,994.12
2022-12-05T02:20:22.537Z,994.08
2022-12-05T02:21:22.535Z,994.09
2022-12-05T02:22:22.521Z,994.15
2022-12-05T02:23:22.526Z,994.17
2022-12-05T02:24:22.632Z,994.13
2022-12-05T02:25:22.508Z,994.15
2022-12-05T02:26:22.503Z,994.18
2022-12-05T02:27:22.492Z,994.19
2022-12-05T02:28:22.505Z,994.19
2022-12-05T02:29:22.486Z,994.24
2022-12-05T02:30:22.516Z,994.20
2022-12-05T02:31:22.560Z,994.16
2022-12-05T02:32:22.463Z,994.16
2022-12-05T02:33:22.460Z,994.18
2022-12-05T02:34:22.460Z,994.20
2022-12-05T02:35:22.459Z,994.16
2022-12-05T02:36:22.427Z,994.19
2022-12-05T02:37:22.445Z,994.18
2022-12-05T02:38:22.437Z,994.13
2022-12-05T02:39:22.427Z,994.10
2022-12-05T02:40:22.439Z,994.15
2022-12-05T02:41:22.426Z,994.10
2022-12-05T02:42:22.406Z,994.13
2022-12-05T02:43:22.388Z,994.12
2022-12-05T02:44:22.771Z,994.12
2022-12-05T02:45:22.387Z,994.16
2022-12-05T02:46:22.447Z,994.09
2022-12-05T02:47:22.383Z,994.18
2022-12-05T02:48:22.359Z,994.09
2022-12-05T02:49:22.370Z,994.17
2022-12-05T02:50:22.351Z,994.12
2022-12-05T02:51:22.342Z,994.08
2022-12-05T02:52:22.329Z,994.14
2022-12-05T02:53:22.375Z,994.09
2022-12-05T02:54:22.321Z,994.11
2022-12-05T02:55:22.312Z,994.11
2022-12-05T02:56:22.395Z,994.07
2022-12-05T02:57:22.313Z,994.08
2022-12-05T02:58:22.286Z,994.09
2022-12-05T02:59:23.754Z,994.06
2022-12-05T03:00:22.286Z,994.10
2022-12-05T03:01:22.373Z,994.07
2022-12-05T03:02:22.274Z,994.08
2022-12-05T03:03:22.272Z,994.05
2022-12-05T03:04:22.285Z,994.11
2022-12-05T03:05:22.266Z,994.07
2022-12-05T03:06:22.238Z,994.02
2022-12-05T03:07:22.260Z,994.02
2022-12-05T03:08:22.234Z,994.03
2022-12-05T03:09:22.221Z,994.04
2022-12-05T03:10:22.206Z,994.04
2022-12-05T03:11:22.223Z,994.03
2022-12-05T03:12:22.258Z,994.04
2022-12-05T03:13:22.199Z,994.07
2022-12-05T03:14:22.192Z,994.04
2022-12-05T03:15:22.187Z,994.06
2022-12-05T03:16:22.247Z,994.02
2022-12-05T03:17:22.200Z,994.07
2022-12-05T03:18:22.258Z,994.12
2022-12-05T03:19:22.176Z,994.05
2022-12-05T03:20:22.158Z,993.99
2022-12-05T03:21:22.151Z,994.07
2022-12-05T03:22:22.170Z,994.09
2022-12-05T03:23:22.135Z,994.07
2022-12-05T03:24:22.131Z,994.08
2022-12-05T03:25:22.168Z,994.06
2022-12-05T03:26:22.120Z,994.09
2022-12-05T03:27:22.108Z,994.06
2022-12-05T03:28:22.145Z,994.10
2022-12-05T03:29:22.128Z,994.05
2022-12-05T03:30:22.121Z,994.07
2022-12-05T03:31:22.205Z,994.09
2022-12-05T03:32:22.085Z,994.07
2022-12-05T03:33:22.088Z,994.05
2022-12-05T03:34:22.083Z,994.07
2022-12-05T03:35:22.156Z,994.07
2022-12-05T03:36:22.250Z,994.08
2022-12-05T03:37:22.110Z,994.05
2022-12-05T03:38:22.036Z,994.13
2022-12-05T03:39:22.046Z,994.10
2022-12-05T03:40:22.036Z,994.14
2022-12-05T03:41:22.015Z,994.16
2022-12-05T03:42:22.020Z,994.15
2022-12-05T03:43:22.012Z,994.12
2022-12-05T03:44:22.027Z,994.07
2022-12-05T03:45:22.042Z,994.09
2022-12-05T03:46:22.075Z,994.08
2022-12-05T03:47:21.968Z,994.15
2022-12-05T03:48:21.968Z,994.15
2022-12-05T03:49:21.962Z,994.13
2022-12-05T03:50:21.953Z,994.21
2022-12-05T03:51:21.967Z,994.19
2022-12-05T03:52:22.021Z,994.09
2022-12-05T03:53:21.971Z,994.21
2022-12-05T03:54:21.942Z,994.16
2022-12-05T03:55:21.916Z,994.16
2022-12-05T03:56:21.939Z,994.17
2022-12-05T03:57:22.446Z,994.20
2022-12-05T03:58:21.913Z,994.22
2022-12-05T03:59:21.903Z,994.22
2022-12-05T04:00:21.989Z,994.24
2022-12-05T04:01:22.015Z,994.19
2022-12-05T04:02:21.875Z,994.21
2022-12-05T04:03:21.914Z,994.18
2022-12-05T04:04:21.921Z,994.22
2022-12-05T04:05:21.866Z,994.20
2022-12-05T04:06:21.911Z,994.27
2022-12-05T04:07:21.844Z,994.26
2022-12-05T04:08:21.906Z,994.17
2022-12-05T04:09:21.842Z,994.25
2022-12-05T04:10:21.833Z,994.26
2022-12-05T04:11:21.884Z,994.23
2022-12-05T04:12:21.854Z,994.25
2022-12-05T04:13:21.792Z,994.22
2022-12-05T04:14:21.792Z,994.26
2022-12-05T04:15:21.836Z,994.23
2022-12-05T04:16:21.854Z,994.31
2022-12-05T04:17:21.765Z,994.31
2022-12-05T04:18:21.787Z,994.34
2022-12-05T04:19:21.778Z,994.28
2022-12-05T04:20:21.760Z,994.31
2022-12-05T04:21:21.757Z,994.34
2022-12-05T04:22:21.742Z,994.35
2022-12-05T04:23:21.750Z,994.32
2022-12-05T04:24:21.767Z,994.40
2022-12-05T04:25:21.758Z,994.37
2022-12-05T04:26:21.702Z,994.37
2022-12-05T04:27:21.707Z,994.34
2022-12-05T04:28:22.168Z,994.33
2022-12-05T04:29:21.820Z,994.32
2022-12-05T04:30:21.698Z,994.45
2022-12-05T04:31:21.722Z,994.43
2022-12-05T04:32:21.709Z,994.40
2022-12-05T04:33:21.666Z,994.46
2022-12-05T04:34:21.668Z,994.45
2022-12-05T04:35:21.669Z,994.48
2022-12-05T04:36:21.647Z,994.47
2022-12-05T04:37:21.646Z,994.45
2022-12-05T04:38:21.633Z,994.43
2022-12-05T04:39:21.644Z,994.41
2022-12-05T04:40:21.623Z,994.50
2022-12-05T04:41:21.837Z,994.49
2022-12-05T04:42:21.608Z,994.52
2022-12-05T04:43:21.621Z,994.49
2022-12-05T04:44:21.603Z,994.48
2022-12-05T04:45:21.689Z,994.52
2022-12-05T04:46:21.682Z,994.49
2022-12-05T04:47:21.603Z,994.49
2022-12-05T04:48:21.598Z,994.55
2022-12-05T04:49:21.559Z,994.52
2022-12-05T04:50:21.561Z,994.49
2022-12-05T04:51:21.562Z,994.52
2022-12-05T04:52:21.573Z,994.52
2022-12-05T04:53:21.544Z,994.50
2022-12-05T04:54:21.531Z,994.48
2022-12-05T04:55:21.549Z,994.47
2022-12-05T04:56:21.532Z,994.55
2022-12-05T04:57:21.536Z,994.51
2022-12-05T04:58:21.516Z,994.55
2022-12-05T04:59:21.628Z,994.52
2022-12-05T05:00:21.485Z,994.57
2022-12-05T05:01:21.580Z,994.52
2022-12-05T05:02:21.589Z,994.56
2022-12-05T05:03:21.544Z,994.49
2022-12-05T05:04:21.490Z,994.50
2022-12-05T05:05:21.480Z,994.49
2022-12-05T05:06:21.471Z,994.51
2022-12-05T05:07:21.481Z,994.58
2022-12-05T05:08:21.543Z,994.56
2022-12-05T05:09:21.435Z,994.58
2022-12-05T05:10:21.469Z,994.52
2022-12-05T05:11:21.441Z,994.47
2022-12-05T05:12:21.645Z,994.43
2022-12-05T05:13:21.429Z,994.53
2022-12-05T05:14:21.396Z,994.55
2022-12-05T05:15:21.401Z,994.52
2022-12-05T05:16:21.515Z,994.56
2022-12-05T05:17:21.435Z,994.57
2022-12-05T05:18:21.380Z,994.63
2022-12-05T05:19:21.375Z,994.57
2022-12-05T05:20:21.413Z,994.67
2022-12-05T05:21:21.381Z,994.61
2022-12-05T05:22:21.385Z,994.59
2022-12-05T05:23:21.356Z,994.62
2022-12-05T05:24:21.340Z,994.64
2022-12-05T05:25:21.349Z,994.68
2022-12-05T05:26:21.338Z,994.67
2022-12-05T05:27:21.332Z,994.72
2022-12-05T05:28:21.323Z,994.75
2022-12-05T05:29:21.321Z,994.81
2022-12-05T05:30:21.312Z,994.70
2022-12-05T05:31:21.447Z,994.78
2022-12-05T05:32:21.284Z,994.75
2022-12-05T05:33:21.308Z,994.74
2022-12-05T05:34:21.303Z,994.71
2022-12-05T05:35:21.362Z,994.76
2022-12-05T05:36:21.287Z,994.72
2022-12-05T05:37:21.291Z,994.76
2022-12-05T05:38:21.260Z,994.69
2022-12-05T05:39:21.249Z,994.71
2022-12-05T05:40:21.246Z,994.70
2022-12-05T05:41:21.236Z,994.77
2022-12-05T05:42:21.240Z,994.72
2022-12-05T05:43:21.256Z,994.71
2022-12-05T05:44:21.203Z,994.81
2022-12-05T05:45:21.268Z,994.76
2022-12-05T05:46:21.274Z,994.72
2022-12-05T05:47:21.211Z,994.78
2022-12-05T05:48:21.190Z,994.72
2022-12-05T05:49:21.180Z,994.83
2022-12-05T05:50:22.104Z,994.78
2022-12-05T05:51:21.197Z,994.79
2022-12-05T05:52:21.195Z,994.79
2022-12-05T05:53:21.167Z,994.84
2022-12-05T05:54:21.157Z,994.82
2022-12-05T05:55:21.154Z,994.78
2022-12-05T05:56:22.014Z,994.87
2022-12-05T05:57:21.129Z,994.85
2022-12-05T05:58:21.137Z,994.85
2022-12-05T05:59:21.156Z,994.84
2022-12-05T06:00:21.110Z,994.81
2022-12-05T06:01:21.139Z,994.81
2022-12-05T06:02:21.128Z,994.83
2022-12-05T06:03:21.329Z,994.80
2022-12-05T06:04:21.171Z,994.82
2022-12-05T06:05:21.089Z,994.80
2022-12-05T06:06:21.070Z,994.84
2022-12-05T06:07:21.071Z,994.86
2022-12-05T06:08:21.219Z,994.88
2022-12-05T06:09:21.054Z,994.83
2022-12-05T06:10:21.046Z,994.80
2022-12-05T06:11:25.750Z,994.83
2022-12-05T06:12:22.028Z,994.83
2022-12-05T06:13:21.043Z,994.83
2022-12-05T06:14:21.032Z,994.78
2022-12-05T06:15:21.037Z,994.81
2022-12-05T06:16:21.345Z,994.79
2022-12-05T06:17:20.999Z,994.80
2022-12-05T06:18:20.995Z,994.77
2022-12-05T06:19:20.996Z,994.83
2022-12-05T06:20:20.976Z,994.82
2022-12-05T06:21:21.241Z,994.84
2022-12-05T06:22:20.974Z,994.83
2022-12-05T06:23:20.974Z,994.84
2022-12-05T06:24:20.990Z,994.90
2022-12-05T06:25:20.961Z,994.86
2022-12-05T06:26:20.930Z,994.87
2022-12-05T06:27:20.933Z,994.91
2022-12-05T06:28:20.945Z,994.86
2022-12-05T06:29:25.347Z,994.95
2022-12-05T06:30:21.931Z,994.90
2022-12-05T06:31:20.956Z,994.93
2022-12-05T06:32:21.234Z,994.96
2022-12-05T06:33:20.908Z,994.93
2022-12-05T06:34:20.877Z,994.94
2022-12-05T06:35:20.905Z,994.93
2022-12-05T06:36:20.911Z,994.93
2022-12-05T06:37:20.897Z,994.94
2022-12-05T06:38:20.853Z,994.94
2022-12-05T06:39:20.874Z,994.92
2022-12-05T06:40:20.882Z,994.91
2022-12-05T06:41:20.839Z,994.98
2022-12-05T06:42:20.844Z,994.93
2022-12-05T06:43:20.838Z,994.89
2022-12-05T06:44:20.829Z,994.94
2022-12-05T06:45:20.835Z,994.95
2022-12-05T06:46:20.843Z,995.01
2022-12-05T06:47:20.801Z,995.05
2022-12-05T06:48:20.796Z,995.04
2022-12-05T06:49:22.433Z,995.04
2022-12-05T06:50:20.807Z,995.06
2022-12-05T06:51:20.786Z,995.02
2022-12-05T06:52:20.753Z,995.06
2022-12-05T06:53:20.768Z,995.04
2022-12-05T06:54:20.753Z,995.03
2022-12-05T06:55:20.794Z,995.03
2022-12-05T06:56:20.841Z,995.04
2022-12-05T06:57:20.732Z,995.04
2022-12-05T06:58:20.754Z,995.04
2022-12-05T06:59:20.736Z,995.05
2022-12-05T07:00:20.701Z,995.04
2022-12-05T07:01:21.266Z,995.05
2022-12-05T07:02:20.780Z,995.08
2022-12-05T07:03:20.691Z,995.09
2022-12-05T07:04:20.699Z,995.10
2022-12-05T07:05:20.685Z,995.15
2022-12-05T07:06:20.984Z,995.14
2022-12-05T07:07:20.689Z,995.11
2022-12-05T07:08:20.725Z,995.13
2022-12-05T07:09:20.657Z,995.14
2022-12-05T07:10:20.702Z,995.14
2022-12-05T07:11:20.669Z,995.18
2022-12-05T07:12:20.690Z,995.17
2022-12-05T07:13:20.657Z,995.22
2022-12-05T07:15:21.613Z,995.11
2022-12-05T07:16:20.731Z,995.24
2022-12-05T07:17:20.597Z,995.20
2022-12-05T07:18:20.623Z,995.23
2022-12-05T07:19:20.582Z,995.24
2022-12-05T07:20:20.619Z,995.29
2022-12-05T07:21:20.567Z,995.28
2022-12-05T07:22:20.592Z,995.24
2022-12-05T07:23:20.580Z,995.27
2022-12-05T07:24:20.575Z,995.35
2022-12-05T07:25:20.542Z,995.34
2022-12-05T07:26:20.549Z,995.33
2022-12-05T07:27:26.552Z,995.26
2022-12-05T07:28:21.638Z,995.28
2022-12-05T07:29:20.532Z,995.28
2022-12-05T07:30:20.573Z,995.21
2022-12-05T07:31:20.575Z,995.18
2022-12-05T07:32:20.592Z,995.17
2022-12-05T07:33:20.490Z,995.20
2022-12-05T07:34:20.488Z,995.20
2022-12-05T07:35:20.485Z,995.22
2022-12-05T07:36:20.546Z,995.21
2022-12-05T07:37:20.483Z,995.24
2022-12-05T07:38:20.477Z,995.19
2022-12-05T07:39:20.446Z,995.28
2022-12-05T07:40:20.448Z,995.26
2022-12-05T07:41:20.448Z,995.27
2022-12-05T07:42:20.470Z,995.29
2022-12-05T07:43:20.430Z,995.29
2022-12-05T07:44:20.473Z,995.32
2022-12-05T07:45:20.409Z,995.31
2022-12-05T07:46:20.486Z,995.29
2022-12-05T07:47:20.509Z,995.35
2022-12-05T07:48:20.446Z,995.33
2022-12-05T07:49:20.416Z,995.30
2022-12-05T07:50:20.405Z,995.36
2022-12-05T07:51:20.382Z,995.35
2022-12-05T07:52:20.428Z,995.32
2022-12-05T07:53:20.360Z,995.39
2022-12-05T07:54:20.365Z,995.36
2022-12-05T07:55:20.417Z,995.37
2022-12-05T07:56:20.345Z,995.43
2022-12-05T07:57:20.403Z,995.39
2022-12-05T07:58:20.353Z,995.44
2022-12-05T07:59:20.343Z,995.48
2022-12-05T08:00:20.362Z,995.49
2022-12-05T08:01:20.466Z,995.42
2022-12-05T08:02:20.420Z,995.42
2022-12-05T08:03:20.347Z,995.50
2022-12-05T08:04:20.297Z,995.46
2022-12-05T08:05:20.309Z,995.49
2022-12-05T08:06:20.348Z,995.56
2022-12-05T08:07:20.334Z,995.57
2022-12-05T08:08:20.350Z,995.57
2022-12-05T08:09:20.290Z,995.57
2022-12-05T08:10:20.311Z,995.60
2022-12-05T08:11:20.309Z,995.63
2022-12-05T08:12:20.261Z,995.59
2022-12-05T08:13:20.394Z,995.69
2022-12-05T08:14:20.236Z,995.66
2022-12-05T08:15:20.247Z,995.67
2022-12-05T08:16:20.315Z,995.72
2022-12-05T08:17:20.237Z,995.75
2022-12-05T08:18:25.854Z,995.75
2022-12-05T08:19:21.212Z,995.78
2022-12-05T08:20:20.210Z,995.76
2022-12-05T08:21:20.220Z,995.75
2022-12-05T08:22:20.182Z,995.77
2022-12-05T08:23:20.347Z,995.82
2022-12-05T08:24:20.174Z,995.84
2022-12-05T08:25:20.181Z,995.82
2022-12-05T08:26:20.184Z,995.83
2022-12-05T08:27:20.169Z,995.84
2022-12-05T08:28:20.141Z,995.83
2022-12-05T08:29:20.157Z,995.77
2022-12-05T08:30:20.193Z,995.85
2022-12-05T08:31:20.338Z,995.83
2022-12-05T08:32:20.164Z,995.86
2022-12-05T08:33:20.157Z,995.82
2022-12-05T08:34:20.108Z,995.85
2022-12-05T08:35:20.122Z,995.85
2022-12-05T08:36:20.118Z,995.84
2022-12-05T08:37:20.104Z,995.87
2022-12-05T08:38:20.095Z,995.87
2022-12-05T08:39:20.081Z,995.86
2022-12-05T08:40:20.079Z,995.93
2022-12-05T08:41:20.083Z,995.88
2022-12-05T08:42:20.067Z,995.92
2022-12-05T08:43:20.074Z,995.97
2022-12-05T08:44:20.053Z,995.98
2022-12-05T08:45:20.047Z,996.02
2022-12-05T08:46:20.209Z,995.97
2022-12-05T08:47:20.044Z,996.00
2022-12-05T08:48:22.445Z,995.98
2022-12-05T08:49:21.037Z,995.98
2022-12-05T08:50:20.010Z,996.03
2022-12-05T08:51:20.027Z,995.92
2022-12-05T08:52:20.001Z,995.99
2022-12-05T08:53:19.993Z,996.00
2022-12-05T08:54:19.972Z,995.96
2022-12-05T08:55:19.994Z,995.96
2022-12-05T08:56:26.380Z,995.98
2022-12-05T08:57:19.983Z,995.99
2022-12-05T08:58:19.960Z,996.02
2022-12-05T08:59:19.976Z,996.08
2022-12-05T09:00:20.033Z,996.09
2022-12-05T09:01:20.222Z,996.12
2022-12-05T09:02:19.997Z,996.14
2022-12-05T09:03:20.008Z,996.10
2022-12-05T09:04:19.939Z,996.15
2022-12-05T09:05:28.269Z,996.15
2022-12-05T09:06:19.933Z,996.17
2022-12-05T09:07:19.907Z,996.11
2022-12-05T09:08:19.988Z,996.21
2022-12-05T09:09:19.948Z,996.12
2022-12-05T09:10:19.869Z,996.19
2022-12-05T09:11:19.897Z,996.17
2022-12-05T09:12:19.872Z,996.12
2022-12-05T09:13:19.886Z,996.15
2022-12-05T09:14:19.864Z,996.15
2022-12-05T09:15:19.865Z,996.10
2022-12-05T09:16:19.997Z,996.11
2022-12-05T09:17:19.854Z,996.09
2022-12-05T09:18:19.845Z,996.10
2022-12-05T09:19:19.825Z,996.18
2022-12-05T09:20:19.967Z,996.11
2022-12-05T09:21:19.810Z,996.13
2022-12-05T09:22:19.810Z,996.10
2022-12-05T09:23:19.826Z,996.11
2022-12-05T09:24:19.785Z,995.98
2022-12-05T09:25:19.826Z,996.02
2022-12-05T09:26:19.863Z,996.08
2022-12-05T09:27:19.854Z,996.03
2022-12-05T09:28:19.768Z,996.10
2022-12-05T09:29:19.755Z,996.10
2022-12-05T09:30:19.735Z,996.10
2022-12-05T09:31:19.963Z,996.13
2022-12-05T09:32:19.737Z,996.10
2022-12-05T09:33:19.729Z,996.15
2022-12-05T09:34:19.714Z,996.10
2022-12-05T09:35:19.736Z,996.07
2022-12-05T09:36:19.729Z,996.06
2022-12-05T09:37:37.994Z,996.11
2022-12-05T09:38:20.699Z,996.16
2022-12-05T09:39:19.705Z,996.08
2022-12-05T09:40:19.697Z,996.14
2022-12-05T09:41:19.695Z,996.12
2022-12-05T09:42:19.663Z,996.11
2022-12-05T09:43:19.694Z,996.03
2022-12-05T09:44:19.647Z,996.10
2022-12-05T09:45:19.676Z,996.12
2022-12-05T09:46:19.736Z,996.14
2022-12-05T09:47:19.718Z,996.11
2022-12-05T09:48:19.646Z,996.09
2022-12-05T09:49:19.639Z,996.13
2022-12-05T09:50:19.625Z,996.11
2022-12-05T09:51:19.610Z,996.14
2022-12-05T09:52:19.635Z,996.08
2022-12-05T09:53:19.615Z,996.02
2022-12-05T09:54:19.579Z,996.09
2022-12-05T09:55:19.601Z,996.01
2022-12-05T09:56:19.572Z,996.02
2022-12-05T09:57:19.585Z,996.01
2022-12-05T09:58:19.570Z,996.04
2022-12-05T09:59:19.563Z,996.00
2022-12-05T10:00:19.556Z,996.06
2022-12-05T10:01:19.770Z,995.98
2022-12-05T10:02:19.529Z,996.08
2022-12-05T10:03:19.579Z,996.08
2022-12-05T10:04:19.580Z,995.95
2022-12-05T10:05:19.669Z,995.93
2022-12-05T10:06:19.521Z,995.93
2022-12-05T10:07:19.545Z,995.89
2022-12-05T10:08:19.643Z,995.88
2022-12-05T10:09:19.518Z,995.84
2022-12-05T10:10:24.018Z,995.82
2022-12-05T10:11:19.538Z,995.77
2022-12-05T10:12:19.499Z,995.77
2022-12-05T10:13:19.520Z,995.78
2022-12-05T10:14:19.487Z,995.75
2022-12-05T10:15:19.458Z,995.76
2022-12-05T10:16:19.526Z,995.70
2022-12-05T10:17:19.462Z,995.73
2022-12-05T10:18:19.480Z,995.73
2022-12-05T10:19:19.449Z,995.86
2022-12-05T10:20:19.555Z,995.83
2022-12-05T10:21:19.411Z,995.85
2022-12-05T10:22:20.833Z,995.93
2022-12-05T10:23:48.747Z,995.80
2022-12-05T10:24:20.463Z,995.86
2022-12-05T10:25:19.410Z,995.80
2022-12-05T10:26:19.389Z,995.87
2022-12-05T10:27:19.384Z,995.80
2022-12-05T10:28:19.378Z,995.83
2022-12-05T10:29:19.359Z,995.82
2022-12-05T10:30:19.379Z,995.79
2022-12-05T10:31:19.452Z,995.82
2022-12-05T10:32:19.364Z,995.83
2022-12-05T10:33:19.355Z,995.86
2022-12-05T10:34:19.336Z,995.89
2022-12-05T10:35:19.336Z,995.94
2022-12-05T10:36:19.350Z,995.97
2022-12-05T10:37:19.322Z,995.97
2022-12-05T10:38:19.331Z,995.99
2022-12-05T10:39:19.332Z,996.02
2022-12-05T10:40:19.324Z,996.02
2022-12-05T10:41:19.280Z,996.01
2022-12-05T10:42:19.333Z,995.96
2022-12-05T10:43:19.283Z,996.00
2022-12-05T10:44:19.286Z,995.96
2022-12-05T10:45:19.270Z,996.00
2022-12-05T10:46:19.342Z,996.00
2022-12-05T10:47:19.350Z,995.97
2022-12-05T10:48:19.256Z,996.04
2022-12-05T10:49:19.225Z,996.03
2022-12-05T10:50:19.268Z,996.10
2022-12-05T10:51:19.327Z,996.02
2022-12-05T10:52:19.221Z,996.05
2022-12-05T10:53:19.203Z,996.05
2022-12-05T10:54:19.220Z,996.08
2022-12-05T10:55:19.193Z,996.05
2022-12-05T10:56:30.312Z,996.04
2022-12-05T10:57:20.189Z,996.11
2022-12-05T10:58:19.183Z,996.11
2022-12-05T10:59:19.196Z,996.11
2022-12-05T11:00:19.185Z,996.12
2022-12-05T11:01:19.239Z,996.12
2022-12-05T11:02:19.261Z,996.16
2022-12-05T11:03:19.144Z,996.14
2022-12-05T11:04:19.192Z,996.13
2022-12-05T11:05:19.246Z,996.15
2022-12-05T11:06:19.136Z,996.11
2022-12-05T11:07:19.636Z,996.06
2022-12-05T11:08:19.544Z,996.06
2022-12-05T11:09:19.105Z,996.07
2022-12-05T11:10:23.556Z,996.07
2022-12-05T11:11:20.092Z,996.09
2022-12-05T11:12:19.132Z,996.11
2022-12-05T11:13:19.093Z,996.12
2022-12-05T11:14:19.080Z,996.06
2022-12-05T11:15:19.077Z,996.09
2022-12-05T11:16:19.152Z,996.10
2022-12-05T11:17:19.173Z,996.08
2022-12-05T11:18:19.105Z,996.03
2022-12-05T11:19:19.045Z,996.04
2022-12-05T11:20:19.066Z,996.03
2022-12-05T11:21:19.089Z,996.04
2022-12-05T11:22:19.061Z,996.07
2022-12-05T11:23:19.018Z,996.08
2022-12-05T11:24:19.034Z,996.05
2022-12-05T11:25:19.133Z,996.06
2022-12-05T11:26:19.006Z,995.98
2022-12-05T11:27:19.017Z,996.01
2022-12-05T11:28:19.011Z,996.00
2022-12-05T11:29:18.975Z,996.03
2022-12-05T11:30:19.016Z,996.00
2022-12-05T11:31:19.006Z,996.02
2022-12-05T11:32:18.978Z,996.01
2022-12-05T11:33:18.979Z,995.99
2022-12-05T11:34:18.968Z,995.99
2022-12-05T11:35:18.948Z,995.99
2022-12-05T11:36:18.939Z,996.01
2022-12-05T11:37:18.922Z,995.96
2022-12-05T11:38:18.957Z,995.97
2022-12-05T11:39:18.920Z,995.91
2022-12-05T11:40:21.640Z,995.99
2022-12-05T11:41:19.896Z,995.92
2022-12-05T11:42:18.927Z,995.87
2022-12-05T11:43:18.899Z,995.89
2022-12-05T11:44:18.950Z,995.94
2022-12-05T11:45:18.888Z,995.95
2022-12-05T11:46:22.348Z,995.87
2022-12-05T11:47:19.894Z,995.88
2022-12-05T11:48:18.857Z,995.91
2022-12-05T11:49:18.868Z,995.95
2022-12-05T11:50:18.859Z,995.95
2022-12-05T11:51:18.832Z,995.95
2022-12-05T11:52:18.853Z,996.00
2022-12-05T11:53:18.832Z,995.94
2022-12-05T11:54:35.567Z,995.97
2022-12-05T11:55:20.171Z,995.96
2022-12-05T11:56:18.824Z,995.95
2022-12-05T11:57:18.809Z,995.98
2022-12-05T11:58:18.795Z,995.99
2022-12-05T11:59:18.800Z,995.99
2022-12-05T12:00:18.831Z,995.97
2022-12-05T12:01:18.766Z,995.96
2022-12-05T12:02:18.912Z,995.98
2022-12-05T12:03:18.888Z,995.93
2022-12-05T12:04:18.765Z,995.99
2022-12-05T12:05:18.806Z,995.94
2022-12-05T12:06:18.749Z,995.99
2022-12-05T12:07:18.748Z,995.95
2022-12-05T12:08:18.870Z,995.95
2022-12-05T12:09:18.706Z,996.00
2022-12-05T12:10:18.723Z,995.99
2022-12-05T12:11:18.820Z,996.00
2022-12-05T12:12:18.688Z,996.04
2022-12-05T12:13:18.691Z,996.01
2022-12-05T12:14:18.725Z,995.97
2022-12-05T12:15:18.681Z,995.94
2022-12-05T12:16:18.760Z,995.98
2022-12-05T12:17:18.700Z,995.95
2022-12-05T12:18:18.659Z,996.02
2022-12-05T12:19:18.721Z,995.95
2022-12-05T12:20:18.643Z,995.96
2022-12-05T12:21:18.660Z,995.97
2022-12-05T12:22:18.645Z,995.93
2022-12-05T12:23:18.631Z,995.95
2022-12-05T12:24:18.635Z,995.98
2022-12-05T12:25:18.624Z,995.97
2022-12-05T12:26:18.601Z,995.96
2022-12-05T12:27:18.616Z,995.96
2022-12-05T12:28:18.608Z,995.96
2022-12-05T12:29:18.606Z,995.98